sensor_id;sensor_type;location;lat;lon;timestamp;temperature;humidity
44723;DHT22;30451;48.638;10.624;2023-09-08T00:02:18;26.40;50.20
44723;DHT22;30451;48.638;10.624;2023-09-08T00:04:44;26.40;50.20
44723;DHT22;30451;48.638;10.624;2023-09-08T00:07:10;26.40;50.20
44723;DHT22;30451;48.638;10.624;2023-09-08T00:09:35;26.40;50.30
44723;DHT22;30451;48.638;10.624;2023-09-08T00:12:01;26.40;50.80
44723;DHT22;30451;48.638;10.624;2023-09-08T00:14:27;26.40;50.20
44723;DHT22;30451;48.638;10.624;2023-09-08T00:16:53;26.40;50.20
44723;DHT22;30451;48.638;10.624;2023-09-08T00:19:22;26.40;50.20
44723;DHT22;30451;48.638;10.624;2023-09-08T00:21:48;26.40;50.30
44723;DHT22;30451;48.638;10.624;2023-09-08T00:24:15;26.40;50.30
44723;DHT22;30451;48.638;10.624;2023-09-08T00:26:40;26.30;50.20
44723;DHT22;30451;48.638;10.624;2023-09-08T00:29:06;26.30;50.20
44723;DHT22;30451;48.638;10.624;2023-09-08T00:31:33;26.30;50.20
44723;DHT22;30451;48.638;10.624;2023-09-08T00:33:58;26.30;50.30
44723;DHT22;30451;48.638;10.624;2023-09-08T00:36:24;26.30;50.80
44723;DHT22;30451;48.638;10.624;2023-09-08T00:38:50;26.30;50.30
44723;DHT22;30451;48.638;10.624;2023-09-08T00:41:15;26.30;50.40
44723;DHT22;30451;48.638;10.624;2023-09-08T00:43:41;26.20;50.30
44723;DHT22;30451;48.638;10.624;2023-09-08T00:46:07;26.20;50.30
44723;DHT22;30451;48.638;10.624;2023-09-08T00:48:34;26.20;50.30
44723;DHT22;30451;48.638;10.624;2023-09-08T00:51:00;26.20;50.40
44723;DHT22;30451;48.638;10.624;2023-09-08T00:53:26;26.20;50.40
44723;DHT22;30451;48.638;10.624;2023-09-08T00:55:51;26.20;50.40
44723;DHT22;30451;48.638;10.624;2023-09-08T00:58:18;26.20;50.40
44723;DHT22;30451;48.638;10.624;2023-09-08T01:00:44;26.20;50.40
44723;DHT22;30451;48.638;10.624;2023-09-08T01:03:11;26.10;50.40
44723;DHT22;30451;48.638;10.624;2023-09-08T01:05:37;26.10;50.40
44723;DHT22;30451;48.638;10.624;2023-09-08T01:08:03;26.10;50.50
44723;DHT22;30451;48.638;10.624;2023-09-08T01:10:29;26.10;50.40
44723;DHT22;30451;48.638;10.624;2023-09-08T01:12:54;26.10;50.50
44723;DHT22;30451;48.638;10.624;2023-09-08T01:15:20;26.00;50.40
44723;DHT22;30451;48.638;10.624;2023-09-08T01:17:45;26.10;50.50
44723;DHT22;30451;48.638;10.624;2023-09-08T01:20:27;26.00;50.40
44723;DHT22;30451;48.638;10.624;2023-09-08T01:23:01;26.00;50.50
44723;DHT22;30451;48.638;10.624;2023-09-08T01:25:30;26.00;50.50
44723;DHT22;30451;48.638;10.624;2023-09-08T01:28:00;26.00;50.50
44723;DHT22;30451;48.638;10.624;2023-09-08T01:30:28;26.00;50.50
44723;DHT22;30451;48.638;10.624;2023-09-08T01:32:55;26.00;50.60
44723;DHT22;30451;48.638;10.624;2023-09-08T01:35:21;25.90;50.50
44723;DHT22;30451;48.638;10.624;2023-09-08T01:37:48;25.90;50.50
44723;DHT22;30451;48.638;10.624;2023-09-08T01:40:14;25.90;50.50
44723;DHT22;30451;48.638;10.624;2023-09-08T01:42:41;25.90;50.60
44723;DHT22;30451;48.638;10.624;2023-09-08T01:45:07;25.90;50.60
44723;DHT22;30451;48.638;10.624;2023-09-08T01:47:33;25.90;50.60
44723;DHT22;30451;48.638;10.624;2023-09-08T01:49:59;25.90;50.60
44723;DHT22;30451;48.638;10.624;2023-09-08T01:52:25;25.90;50.60
44723;DHT22;30451;48.638;10.624;2023-09-08T01:54:51;25.80;50.50
44723;DHT22;30451;48.638;10.624;2023-09-08T01:57:17;25.80;50.60
44723;DHT22;30451;48.638;10.624;2023-09-08T01:59:42;25.80;50.60
44723;DHT22;30451;48.638;10.624;2023-09-08T02:02:10;25.80;50.60
44723;DHT22;30451;48.638;10.624;2023-09-08T02:04:36;25.80;50.60
44723;DHT22;30451;48.638;10.624;2023-09-08T02:07:01;25.80;50.60
44723;DHT22;30451;48.638;10.624;2023-09-08T02:09:36;25.80;50.70
44723;DHT22;30451;48.638;10.624;2023-09-08T02:12:03;25.80;50.70
44723;DHT22;30451;48.638;10.624;2023-09-08T02:14:29;25.80;50.70
44723;DHT22;30451;48.638;10.624;2023-09-08T02:16:55;25.80;50.70
44723;DHT22;30451;48.638;10.624;2023-09-08T02:19:22;25.80;50.80
44723;DHT22;30451;48.638;10.624;2023-09-08T02:21:48;25.80;50.80
44723;DHT22;30451;48.638;10.624;2023-09-08T02:24:13;25.70;50.80
44723;DHT22;30451;48.638;10.624;2023-09-08T02:26:40;25.70;50.80
44723;DHT22;30451;48.638;10.624;2023-09-08T02:29:05;25.70;50.80
44723;DHT22;30451;48.638;10.624;2023-09-08T02:31:31;25.70;50.80
44723;DHT22;30451;48.638;10.624;2023-09-08T02:33:57;25.70;50.80
44723;DHT22;30451;48.638;10.624;2023-09-08T02:36:22;25.70;50.80
44723;DHT22;30451;48.638;10.624;2023-09-08T02:38:55;25.70;50.80
44723;DHT22;30451;48.638;10.624;2023-09-08T02:41:21;25.60;50.70
44723;DHT22;30451;48.638;10.624;2023-09-08T02:43:47;25.60;50.70
44723;DHT22;30451;48.638;10.624;2023-09-08T02:46:13;25.60;50.70
44723;DHT22;30451;48.638;10.624;2023-09-08T02:48:39;25.60;50.70
44723;DHT22;30451;48.638;10.624;2023-09-08T02:51:05;25.60;50.80
44723;DHT22;30451;48.638;10.624;2023-09-08T02:53:30;25.60;50.80
44723;DHT22;30451;48.638;10.624;2023-09-08T02:55:57;25.60;50.80
44723;DHT22;30451;48.638;10.624;2023-09-08T02:58:23;25.60;50.80
44723;DHT22;30451;48.638;10.624;2023-09-08T03:00:49;25.50;50.80
44723;DHT22;30451;48.638;10.624;2023-09-08T03:03:16;25.60;50.90
44723;DHT22;30451;48.638;10.624;2023-09-08T03:05:42;25.60;50.90
44723;DHT22;30451;48.638;10.624;2023-09-08T03:08:07;25.50;50.80
44723;DHT22;30451;48.638;10.624;2023-09-08T03:10:33;25.50;50.90
44723;DHT22;30451;48.638;10.624;2023-09-08T03:13:03;25.50;50.90
44723;DHT22;30451;48.638;10.624;2023-09-08T03:15:28;25.50;50.90
44723;DHT22;30451;48.638;10.624;2023-09-08T03:17:55;25.50;50.90
44723;DHT22;30451;48.638;10.624;2023-09-08T03:20:21;25.50;50.90
44723;DHT22;30451;48.638;10.624;2023-09-08T03:22:46;25.40;50.90
44723;DHT22;30451;48.638;10.624;2023-09-08T03:25:15;25.50;51.00
44723;DHT22;30451;48.638;10.624;2023-09-08T03:27:40;25.40;50.90
44723;DHT22;30451;48.638;10.624;2023-09-08T03:30:07;25.40;51.00
44723;DHT22;30451;48.638;10.624;2023-09-08T03:32:33;25.40;51.00
44723;DHT22;30451;48.638;10.624;2023-09-08T03:34:58;25.40;51.10
44723;DHT22;30451;48.638;10.624;2023-09-08T03:37:24;25.40;51.10
44723;DHT22;30451;48.638;10.624;2023-09-08T03:39:51;25.40;51.10
44723;DHT22;30451;48.638;10.624;2023-09-08T03:42:17;25.40;51.10
44723;DHT22;30451;48.638;10.624;2023-09-08T03:44:43;25.40;51.10
44723;DHT22;30451;48.638;10.624;2023-09-08T03:47:08;25.30;51.10
44723;DHT22;30451;48.638;10.624;2023-09-08T03:49:34;25.40;51.10
44723;DHT22;30451;48.638;10.624;2023-09-08T03:51:59;25.30;51.10
44723;DHT22;30451;48.638;10.624;2023-09-08T03:54:25;25.30;51.10
44723;DHT22;30451;48.638;10.624;2023-09-08T03:56:50;25.30;51.10
44723;DHT22;30451;48.638;10.624;2023-09-08T03:59:16;25.30;51.10
44723;DHT22;30451;48.638;10.624;2023-09-08T04:01:42;25.30;51.10
44723;DHT22;30451;48.638;10.624;2023-09-08T04:04:07;25.30;51.10
44723;DHT22;30451;48.638;10.624;2023-09-08T04:06:33;25.20;51.10
44723;DHT22;30451;48.638;10.624;2023-09-08T04:08:59;25.30;51.20
44723;DHT22;30451;48.638;10.624;2023-09-08T04:11:25;25.20;51.20
44723;DHT22;30451;48.638;10.624;2023-09-08T04:13:51;25.20;51.20
44723;DHT22;30451;48.638;10.624;2023-09-08T04:16:17;25.20;51.20
44723;DHT22;30451;48.638;10.624;2023-09-08T04:18:43;25.20;51.20
44723;DHT22;30451;48.638;10.624;2023-09-08T04:21:08;25.20;51.20
44723;DHT22;30451;48.638;10.624;2023-09-08T04:23:34;25.20;51.20
44723;DHT22;30451;48.638;10.624;2023-09-08T04:26:00;25.20;51.30
44723;DHT22;30451;48.638;10.624;2023-09-08T04:28:25;25.20;51.30
44723;DHT22;30451;48.638;10.624;2023-09-08T04:30:51;25.20;51.30
44723;DHT22;30451;48.638;10.624;2023-09-08T04:33:16;25.10;51.20
44723;DHT22;30451;48.638;10.624;2023-09-08T04:35:43;25.10;51.20
44723;DHT22;30451;48.638;10.624;2023-09-08T04:38:09;25.10;51.30
44723;DHT22;30451;48.638;10.624;2023-09-08T04:40:34;25.10;51.30
44723;DHT22;30451;48.638;10.624;2023-09-08T04:43:00;25.10;51.80
44723;DHT22;30451;48.638;10.624;2023-09-08T04:45:26;25.10;51.30
44723;DHT22;30451;48.638;10.624;2023-09-08T04:47:51;25.10;51.30
44723;DHT22;30451;48.638;10.624;2023-09-08T04:50:17;25.10;51.30
44723;DHT22;30451;48.638;10.624;2023-09-08T04:52:43;25.10;51.30
44723;DHT22;30451;48.638;10.624;2023-09-08T04:55:09;25.10;51.30
44723;DHT22;30451;48.638;10.624;2023-09-08T04:57:35;25.10;51.40
44723;DHT22;30451;48.638;10.624;2023-09-08T05:00:02;25.10;51.40
44723;DHT22;30451;48.638;10.624;2023-09-08T05:02:27;25.00;51.30
44723;DHT22;30451;48.638;10.624;2023-09-08T05:04:53;25.00;51.30
44723;DHT22;30451;48.638;10.624;2023-09-08T05:07:18;25.00;51.30
44723;DHT22;30451;48.638;10.624;2023-09-08T05:09:44;25.00;51.40
44723;DHT22;30451;48.638;10.624;2023-09-08T05:12:10;25.00;51.40
44723;DHT22;30451;48.638;10.624;2023-09-08T05:14:36;25.00;51.40
44723;DHT22;30451;48.638;10.624;2023-09-08T05:17:03;25.00;51.40
44723;DHT22;30451;48.638;10.624;2023-09-08T05:19:30;25.00;51.40
44723;DHT22;30451;48.638;10.624;2023-09-08T05:21:55;25.00;51.40
44723;DHT22;30451;48.638;10.624;2023-09-08T05:24:21;25.00;51.50
44723;DHT22;30451;48.638;10.624;2023-09-08T05:26:47;25.00;51.50
44723;DHT22;30451;48.638;10.624;2023-09-08T05:29:13;24.90;51.40
44723;DHT22;30451;48.638;10.624;2023-09-08T05:31:39;25.00;51.50
44723;DHT22;30451;48.638;10.624;2023-09-08T05:34:05;24.90;51.40
44723;DHT22;30451;48.638;10.624;2023-09-08T05:36:30;24.90;51.40
44723;DHT22;30451;48.638;10.624;2023-09-08T05:38:58;24.90;51.40
44723;DHT22;30451;48.638;10.624;2023-09-08T05:41:23;24.90;51.50
44723;DHT22;30451;48.638;10.624;2023-09-08T05:43:49;24.90;51.50
44723;DHT22;30451;48.638;10.624;2023-09-08T05:46:15;24.90;51.50
44723;DHT22;30451;48.638;10.624;2023-09-08T05:48:40;24.90;51.50
44723;DHT22;30451;48.638;10.624;2023-09-08T05:51:06;24.90;51.50
44723;DHT22;30451;48.638;10.624;2023-09-08T05:53:32;24.90;51.50
44723;DHT22;30451;48.638;10.624;2023-09-08T05:55:58;24.90;51.50
44723;DHT22;30451;48.638;10.624;2023-09-08T05:58:24;24.90;51.50
44723;DHT22;30451;48.638;10.624;2023-09-08T06:00:53;24.90;52.00
44723;DHT22;30451;48.638;10.624;2023-09-08T06:03:19;24.80;51.50
44723;DHT22;30451;48.638;10.624;2023-09-08T06:05:44;24.80;51.50
44723;DHT22;30451;48.638;10.624;2023-09-08T06:08:10;24.80;51.50
44723;DHT22;30451;48.638;10.624;2023-09-08T06:10:35;24.80;51.50
44723;DHT22;30451;48.638;10.624;2023-09-08T06:13:01;24.80;51.50
44723;DHT22;30451;48.638;10.624;2023-09-08T06:15:27;24.80;51.60
44723;DHT22;30451;48.638;10.624;2023-09-08T06:17:52;24.80;51.60
44723;DHT22;30451;48.638;10.624;2023-09-08T06:20:18;24.80;51.60
44723;DHT22;30451;48.638;10.624;2023-09-08T06:22:44;24.80;51.60
44723;DHT22;30451;48.638;10.624;2023-09-08T06:25:09;24.80;51.60
44723;DHT22;30451;48.638;10.624;2023-09-08T06:27:35;24.80;51.60
44723;DHT22;30451;48.638;10.624;2023-09-08T06:30:01;24.80;51.60
44723;DHT22;30451;48.638;10.624;2023-09-08T06:32:26;24.80;51.60
44723;DHT22;30451;48.638;10.624;2023-09-08T06:34:52;24.80;51.60
44723;DHT22;30451;48.638;10.624;2023-09-08T06:37:18;24.80;51.60
44723;DHT22;30451;48.638;10.624;2023-09-08T06:39:43;24.80;51.60
44723;DHT22;30451;48.638;10.624;2023-09-08T06:42:09;24.80;51.60
44723;DHT22;30451;48.638;10.624;2023-09-08T06:44:34;24.70;51.60
44723;DHT22;30451;48.638;10.624;2023-09-08T06:47:00;24.80;51.60
44723;DHT22;30451;48.638;10.624;2023-09-08T06:49:26;24.70;51.60
44723;DHT22;30451;48.638;10.624;2023-09-08T06:51:51;24.70;51.60
44723;DHT22;30451;48.638;10.624;2023-09-08T06:54:17;24.70;51.60
44723;DHT22;30451;48.638;10.624;2023-09-08T06:56:43;24.70;51.60
44723;DHT22;30451;48.638;10.624;2023-09-08T06:59:13;24.70;51.60
44723;DHT22;30451;48.638;10.624;2023-09-08T07:01:39;24.70;51.60
44723;DHT22;30451;48.638;10.624;2023-09-08T07:04:05;24.70;51.70
44723;DHT22;30451;48.638;10.624;2023-09-08T07:06:30;24.70;51.70
44723;DHT22;30451;48.638;10.624;2023-09-08T07:08:56;24.70;51.70
44723;DHT22;30451;48.638;10.624;2023-09-08T07:11:22;24.70;51.70
44723;DHT22;30451;48.638;10.624;2023-09-08T07:13:47;24.70;51.70
44723;DHT22;30451;48.638;10.624;2023-09-08T07:16:13;24.70;51.70
44723;DHT22;30451;48.638;10.624;2023-09-08T07:18:38;24.60;51.60
44723;DHT22;30451;48.638;10.624;2023-09-08T07:21:04;24.70;51.70
44723;DHT22;30451;48.638;10.624;2023-09-08T07:23:30;24.60;52.00
44723;DHT22;30451;48.638;10.624;2023-09-08T07:25:55;24.60;51.70
44723;DHT22;30451;48.638;10.624;2023-09-08T07:28:21;24.60;51.70
44723;DHT22;30451;48.638;10.624;2023-09-08T07:30:47;24.60;51.70
44723;DHT22;30451;48.638;10.624;2023-09-08T07:33:12;24.60;51.70
44723;DHT22;30451;48.638;10.624;2023-09-08T07:35:39;24.60;51.70
44723;DHT22;30451;48.638;10.624;2023-09-08T07:38:05;24.60;51.70
44723;DHT22;30451;48.638;10.624;2023-09-08T07:40:34;24.60;51.70
44723;DHT22;30451;48.638;10.624;2023-09-08T07:43:00;24.60;51.70
44723;DHT22;30451;48.638;10.624;2023-09-08T07:45:26;24.60;51.70
44723;DHT22;30451;48.638;10.624;2023-09-08T07:47:51;24.60;51.80
44723;DHT22;30451;48.638;10.624;2023-09-08T07:50:22;24.60;51.80
44723;DHT22;30451;48.638;10.624;2023-09-08T07:52:50;24.60;51.80
44723;DHT22;30451;48.638;10.624;2023-09-08T07:55:15;24.60;51.80
44723;DHT22;30451;48.638;10.624;2023-09-08T07:57:45;24.60;51.80
44723;DHT22;30451;48.638;10.624;2023-09-08T08:00:12;24.60;51.80
44723;DHT22;30451;48.638;10.624;2023-09-08T08:02:41;24.60;51.80
44723;DHT22;30451;48.638;10.624;2023-09-08T08:05:07;24.60;51.80
44723;DHT22;30451;48.638;10.624;2023-09-08T08:07:33;24.60;51.80
44723;DHT22;30451;48.638;10.624;2023-09-08T08:09:59;24.60;51.80
44723;DHT22;30451;48.638;10.624;2023-09-08T08:12:24;24.60;51.80
44723;DHT22;30451;48.638;10.624;2023-09-08T08:14:50;24.60;52.30
44723;DHT22;30451;48.638;10.624;2023-09-08T08:17:16;24.60;51.80
44723;DHT22;30451;48.638;10.624;2023-09-08T08:19:43;24.60;52.30
44723;DHT22;30451;48.638;10.624;2023-09-08T08:22:08;24.60;51.90
44723;DHT22;30451;48.638;10.624;2023-09-08T08:24:34;24.60;51.80
44723;DHT22;30451;48.638;10.624;2023-09-08T08:27:00;24.50;51.80
44723;DHT22;30451;48.638;10.624;2023-09-08T08:29:30;24.50;51.80
44723;DHT22;30451;48.638;10.624;2023-09-08T08:31:56;24.60;51.80
44723;DHT22;30451;48.638;10.624;2023-09-08T08:34:21;24.50;51.80
44723;DHT22;30451;48.638;10.624;2023-09-08T08:36:47;24.50;51.80
44723;DHT22;30451;48.638;10.624;2023-09-08T08:39:13;24.50;51.80
44723;DHT22;30451;48.638;10.624;2023-09-08T08:41:40;24.50;52.30
44723;DHT22;30451;48.638;10.624;2023-09-08T08:44:07;24.60;51.90
44723;DHT22;30451;48.638;10.624;2023-09-08T08:46:34;24.50;51.80
44723;DHT22;30451;48.638;10.624;2023-09-08T08:49:03;24.60;51.90
44723;DHT22;30451;48.638;10.624;2023-09-08T08:51:30;24.60;51.90
44723;DHT22;30451;48.638;10.624;2023-09-08T08:53:57;24.60;51.90
44723;DHT22;30451;48.638;10.624;2023-09-08T08:56:23;24.50;51.80
44723;DHT22;30451;48.638;10.624;2023-09-08T08:58:50;24.50;51.80
44723;DHT22;30451;48.638;10.624;2023-09-08T09:01:16;24.60;51.90
44723;DHT22;30451;48.638;10.624;2023-09-08T09:03:49;24.60;51.90
44723;DHT22;30451;48.638;10.624;2023-09-08T09:06:15;24.60;51.90
44723;DHT22;30451;48.638;10.624;2023-09-08T09:08:43;24.60;51.90
44723;DHT22;30451;48.638;10.624;2023-09-08T09:11:09;24.50;51.80
44723;DHT22;30451;48.638;10.624;2023-09-08T09:13:35;24.60;51.90
44723;DHT22;30451;48.638;10.624;2023-09-08T09:16:02;24.60;51.90
44723;DHT22;30451;48.638;10.624;2023-09-08T09:18:32;24.60;51.90
44723;DHT22;30451;48.638;10.624;2023-09-08T09:21:01;24.50;52.40
44723;DHT22;30451;48.638;10.624;2023-09-08T09:25:54;24.60;51.90
44723;DHT22;30451;48.638;10.624;2023-09-08T09:28:20;24.60;51.90
44723;DHT22;30451;48.638;10.624;2023-09-08T09:30:47;24.60;51.90
44723;DHT22;30451;48.638;10.624;2023-09-08T09:33:13;24.60;51.90
44723;DHT22;30451;48.638;10.624;2023-09-08T09:35:52;24.60;52.00
44723;DHT22;30451;48.638;10.624;2023-09-08T09:38:20;24.50;51.90
44723;DHT22;30451;48.638;10.624;2023-09-08T09:40:47;24.60;52.50
44723;DHT22;30451;48.638;10.624;2023-09-08T09:43:16;24.60;52.00
44723;DHT22;30451;48.638;10.624;2023-09-08T09:45:42;24.60;52.00
44723;DHT22;30451;48.638;10.624;2023-09-08T09:48:09;24.60;52.00
44723;DHT22;30451;48.638;10.624;2023-09-08T09:50:37;24.60;52.00
44723;DHT22;30451;48.638;10.624;2023-09-08T09:53:23;24.60;52.00
44723;DHT22;30451;48.638;10.624;2023-09-08T09:55:49;24.60;52.00
44723;DHT22;30451;48.638;10.624;2023-09-08T09:58:20;24.60;52.00
44723;DHT22;30451;48.638;10.624;2023-09-08T10:00:46;24.60;52.00
44723;DHT22;30451;48.638;10.624;2023-09-08T10:03:13;24.60;52.00
44723;DHT22;30451;48.638;10.624;2023-09-08T10:05:39;24.60;52.00
44723;DHT22;30451;48.638;10.624;2023-09-08T10:08:05;24.60;52.00
44723;DHT22;30451;48.638;10.624;2023-09-08T10:10:32;24.60;52.00
44723;DHT22;30451;48.638;10.624;2023-09-08T10:13:02;24.60;52.00
44723;DHT22;30451;48.638;10.624;2023-09-08T10:15:30;24.60;52.10
44723;DHT22;30451;48.638;10.624;2023-09-08T10:17:56;24.50;52.00
44723;DHT22;30451;48.638;10.624;2023-09-08T10:20:23;24.50;52.10
44723;DHT22;30451;48.638;10.624;2023-09-08T10:22:54;24.60;52.10
44723;DHT22;30451;48.638;10.624;2023-09-08T10:25:24;24.50;52.10
44723;DHT22;30451;48.638;10.624;2023-09-08T10:27:50;24.50;52.10
44723;DHT22;30451;48.638;10.624;2023-09-08T10:30:16;24.60;52.20
44723;DHT22;30451;48.638;10.624;2023-09-08T10:32:43;24.60;52.20
44723;DHT22;30451;48.638;10.624;2023-09-08T10:35:09;24.50;52.20
44723;DHT22;30451;48.638;10.624;2023-09-08T10:37:35;24.60;52.20
44723;DHT22;30451;48.638;10.624;2023-09-08T10:40:22;24.50;52.20
44723;DHT22;30451;48.638;10.624;2023-09-08T10:42:48;24.50;52.20
44723;DHT22;30451;48.638;10.624;2023-09-08T10:45:19;24.60;52.20
44723;DHT22;30451;48.638;10.624;2023-09-08T10:50:25;24.50;52.20
44723;DHT22;30451;48.638;10.624;2023-09-08T10:53:09;24.60;52.30
44723;DHT22;30451;48.638;10.624;2023-09-08T10:55:39;24.50;52.20
44723;DHT22;30451;48.638;10.624;2023-09-08T10:58:06;24.60;52.30
44723;DHT22;30451;48.638;10.624;2023-09-08T11:00:43;24.50;52.30
44723;DHT22;30451;48.638;10.624;2023-09-08T11:03:11;24.60;52.30
44723;DHT22;30451;48.638;10.624;2023-09-08T11:05:36;24.50;52.30
44723;DHT22;30451;48.638;10.624;2023-09-08T11:08:02;24.60;52.40
44723;DHT22;30451;48.638;10.624;2023-09-08T11:10:29;24.60;52.60
44723;DHT22;30451;48.638;10.624;2023-09-08T11:12:56;24.60;52.40
44723;DHT22;30451;48.638;10.624;2023-09-08T11:15:22;24.60;52.40
44723;DHT22;30451;48.638;10.624;2023-09-08T11:17:47;24.60;52.50
44723;DHT22;30451;48.638;10.624;2023-09-08T11:20:16;24.60;52.50
44723;DHT22;30451;48.638;10.624;2023-09-08T11:22:43;24.60;52.50
44723;DHT22;30451;48.638;10.624;2023-09-08T11:25:10;24.60;52.50
44723;DHT22;30451;48.638;10.624;2023-09-08T11:27:37;24.60;52.50
44723;DHT22;30451;48.638;10.624;2023-09-08T11:30:06;24.60;52.50
44723;DHT22;30451;48.638;10.624;2023-09-08T11:32:34;24.60;52.50
44723;DHT22;30451;48.638;10.624;2023-09-08T11:35:08;24.60;52.50
44723;DHT22;30451;48.638;10.624;2023-09-08T11:37:37;24.60;52.50
44723;DHT22;30451;48.638;10.624;2023-09-08T11:40:04;24.60;52.50
44723;DHT22;30451;48.638;10.624;2023-09-08T11:42:35;24.60;52.50
44723;DHT22;30451;48.638;10.624;2023-09-08T11:45:00;24.60;52.50
44723;DHT22;30451;48.638;10.624;2023-09-08T11:47:29;24.60;52.50
44723;DHT22;30451;48.638;10.624;2023-09-08T11:49:55;24.60;52.60
44723;DHT22;30451;48.638;10.624;2023-09-08T11:52:25;24.60;52.60
44723;DHT22;30451;48.638;10.624;2023-09-08T11:54:51;24.60;52.60
44723;DHT22;30451;48.638;10.624;2023-09-08T11:57:17;24.60;52.60
44723;DHT22;30451;48.638;10.624;2023-09-08T11:59:44;24.60;52.60
44723;DHT22;30451;48.638;10.624;2023-09-08T12:02:13;24.60;52.60
44723;DHT22;30451;48.638;10.624;2023-09-08T12:04:39;24.60;52.60
44723;DHT22;30451;48.638;10.624;2023-09-08T12:07:06;24.60;52.60
44723;DHT22;30451;48.638;10.624;2023-09-08T12:09:32;24.60;52.60
44723;DHT22;30451;48.638;10.624;2023-09-08T12:12:02;24.70;52.70
44723;DHT22;30451;48.638;10.624;2023-09-08T12:14:28;24.60;52.60
44723;DHT22;30451;48.638;10.624;2023-09-08T12:17:05;24.70;52.70
44723;DHT22;30451;48.638;10.624;2023-09-08T12:19:32;24.60;52.60
44723;DHT22;30451;48.638;10.624;2023-09-08T12:22:03;24.70;52.70
44723;DHT22;30451;48.638;10.624;2023-09-08T12:24:57;24.60;52.70
44723;DHT22;30451;48.638;10.624;2023-09-08T12:27:23;24.60;52.70
44723;DHT22;30451;48.638;10.624;2023-09-08T12:29:59;24.60;52.60
44723;DHT22;30451;48.638;10.624;2023-09-08T12:32:31;24.60;52.70
44723;DHT22;30451;48.638;10.624;2023-09-08T12:34:58;24.70;52.80
44723;DHT22;30451;48.638;10.624;2023-09-08T12:37:26;24.60;52.70
44723;DHT22;30451;48.638;10.624;2023-09-08T12:39:53;24.60;52.70
44723;DHT22;30451;48.638;10.624;2023-09-08T12:42:19;24.60;52.70
44723;DHT22;30451;48.638;10.624;2023-09-08T12:44:46;24.60;52.70
44723;DHT22;30451;48.638;10.624;2023-09-08T12:47:12;24.70;52.80
44723;DHT22;30451;48.638;10.624;2023-09-08T12:49:38;24.70;52.80
44723;DHT22;30451;48.638;10.624;2023-09-08T12:52:04;24.70;52.80
44723;DHT22;30451;48.638;10.624;2023-09-08T12:54:29;24.70;52.80
44723;DHT22;30451;48.638;10.624;2023-09-08T12:56:55;24.70;52.80
44723;DHT22;30451;48.638;10.624;2023-09-08T12:59:21;24.70;52.90
44723;DHT22;30451;48.638;10.624;2023-09-08T13:01:46;24.70;52.80
44723;DHT22;30451;48.638;10.624;2023-09-08T13:04:12;24.70;52.90
44723;DHT22;30451;48.638;10.624;2023-09-08T13:06:37;24.70;52.90
44723;DHT22;30451;48.638;10.624;2023-09-08T13:09:03;24.70;52.90
44723;DHT22;30451;48.638;10.624;2023-09-08T13:11:30;24.70;52.90
44723;DHT22;30451;48.638;10.624;2023-09-08T13:13:56;24.70;52.90
44723;DHT22;30451;48.638;10.624;2023-09-08T13:16:21;24.70;52.90
44723;DHT22;30451;48.638;10.624;2023-09-08T13:18:47;24.70;52.90
44723;DHT22;30451;48.638;10.624;2023-09-08T13:21:13;24.70;52.90
44723;DHT22;30451;48.638;10.624;2023-09-08T13:23:38;24.70;52.90
44723;DHT22;30451;48.638;10.624;2023-09-08T13:26:04;24.70;52.90
44723;DHT22;30451;48.638;10.624;2023-09-08T13:28:29;24.70;52.90
44723;DHT22;30451;48.638;10.624;2023-09-08T13:30:55;24.70;53.00
44723;DHT22;30451;48.638;10.624;2023-09-08T13:33:21;24.70;53.00
44723;DHT22;30451;48.638;10.624;2023-09-08T13:35:46;24.70;53.00
44723;DHT22;30451;48.638;10.624;2023-09-08T13:38:12;24.70;53.00
44723;DHT22;30451;48.638;10.624;2023-09-08T13:40:37;24.70;53.00
44723;DHT22;30451;48.638;10.624;2023-09-08T13:43:03;24.70;53.00
44723;DHT22;30451;48.638;10.624;2023-09-08T13:45:29;24.80;53.00
44723;DHT22;30451;48.638;10.624;2023-09-08T13:47:54;24.80;53.00
44723;DHT22;30451;48.638;10.624;2023-09-08T13:50:20;24.70;53.00
44723;DHT22;30451;48.638;10.624;2023-09-08T13:52:46;24.70;53.00
44723;DHT22;30451;48.638;10.624;2023-09-08T13:55:11;24.80;53.00
44723;DHT22;30451;48.638;10.624;2023-09-08T13:57:37;24.80;53.00
44723;DHT22;30451;48.638;10.624;2023-09-08T14:00:03;24.80;53.10
44723;DHT22;30451;48.638;10.624;2023-09-08T14:02:29;24.80;53.00
44723;DHT22;30451;48.638;10.624;2023-09-08T14:04:54;24.80;53.10
44723;DHT22;30451;48.638;10.624;2023-09-08T14:07:20;24.80;53.10
44723;DHT22;30451;48.638;10.624;2023-09-08T14:09:46;24.80;53.10
44723;DHT22;30451;48.638;10.624;2023-09-08T14:12:11;24.80;53.20
44723;DHT22;30451;48.638;10.624;2023-09-08T14:14:37;24.80;53.20
44723;DHT22;30451;48.638;10.624;2023-09-08T14:17:02;24.80;53.30
44723;DHT22;30451;48.638;10.624;2023-09-08T14:19:28;24.80;53.30
44723;DHT22;30451;48.638;10.624;2023-09-08T14:21:54;24.80;53.30
44723;DHT22;30451;48.638;10.624;2023-09-08T14:24:21;24.80;53.30
44723;DHT22;30451;48.638;10.624;2023-09-08T14:26:46;24.80;53.40
44723;DHT22;30451;48.638;10.624;2023-09-08T14:29:12;24.80;53.40
44723;DHT22;30451;48.638;10.624;2023-09-08T14:31:38;24.80;53.40
44723;DHT22;30451;48.638;10.624;2023-09-08T14:34:03;24.80;53.50
44723;DHT22;30451;48.638;10.624;2023-09-08T14:36:29;24.80;53.50
44723;DHT22;30451;48.638;10.624;2023-09-08T14:38:55;24.80;53.50
44723;DHT22;30451;48.638;10.624;2023-09-08T14:41:21;24.80;53.60
44723;DHT22;30451;48.638;10.624;2023-09-08T14:43:47;24.80;53.60
44723;DHT22;30451;48.638;10.624;2023-09-08T14:46:12;24.80;53.60
44723;DHT22;30451;48.638;10.624;2023-09-08T14:48:38;24.80;53.60
44723;DHT22;30451;48.638;10.624;2023-09-08T14:51:04;24.80;53.60
44723;DHT22;30451;48.638;10.624;2023-09-08T14:53:30;24.80;53.70
44723;DHT22;30451;48.638;10.624;2023-09-08T14:55:59;24.80;53.70
44723;DHT22;30451;48.638;10.624;2023-09-08T14:58:25;24.80;53.70
44723;DHT22;30451;48.638;10.624;2023-09-08T15:00:57;24.80;53.70
44723;DHT22;30451;48.638;10.624;2023-09-08T15:03:23;24.80;53.70
44723;DHT22;30451;48.638;10.624;2023-09-08T15:05:48;24.80;54.20
44723;DHT22;30451;48.638;10.624;2023-09-08T15:08:14;24.80;54.30
44723;DHT22;30451;48.638;10.624;2023-09-08T15:10:40;24.80;53.70
44723;DHT22;30451;48.638;10.624;2023-09-08T15:13:05;24.80;53.80
44723;DHT22;30451;48.638;10.624;2023-09-08T15:15:31;24.90;53.80
44723;DHT22;30451;48.638;10.624;2023-09-08T15:17:56;24.90;53.80